Monroe, North Carolina
Current Conditions -  °F | °C
As of 2:53 AM on Sunday 21 Dec 2014 (Local Time) from KEQY Reporting Station
Overcast Overcast  
Wind Chill: 36°   Ceiling: 3000
Heat Index: 40°   Visibility: 9mi
Dew Point: 35°   Wind: 6mph
Humidity: 83%   Direction: 30°NNE
Pressure: 30.24"   Gusts: NA
Location:  34.98°N, 80.55°W
Report Text: KEQY 210753Z AUTO 03005KT 9SM OVC030 04/02 A3024 RMK AO2 SLP257 T00440017
Loading
Personal Weather Stations






























Interactive Weather Map New forecast layout! Learn more

10-Day Weather Forecast

Advertisements
Track Severe Weather on mobile